sensor_id;sensor_type;location;lat;lon;timestamp;P1;durP1;ratioP1;P2;durP2;ratioP2
20935;SDS011;10627;54.514;18.532;2022-10-17T01:32:18;4.63;;;3.30;;
20935;SDS011;10627;54.514;18.532;2022-10-17T01:38:52;6.23;;;3.73;;
20935;SDS011;10627;54.514;18.532;2022-10-17T01:50:43;6.07;;;3.30;;
20935;SDS011;10627;54.514;18.532;2022-10-17T02:01:31;11.13;;;3.83;;
20935;SDS011;10627;54.514;18.532;2022-10-17T02:30:30;5.97;;;3.20;;
20935;SDS011;10627;54.514;18.532;2022-10-17T02:35:53;9.33;;;3.60;;
20935;SDS011;10627;54.514;18.532;2022-10-17T02:40:56;6.37;;;3.30;;
20935;SDS011;10627;54.514;18.532;2022-10-17T02:46:32;9.37;;;3.40;;
20935;SDS011;10627;54.514;18.532;2022-10-17T03:05:01;6.87;;;3.70;;
20935;SDS011;10627;54.514;18.532;2022-10-17T03:22:43;7.33;;;3.73;;
20935;SDS011;10627;54.514;18.532;2022-10-17T03:27:58;9.03;;;3.60;;
20935;SDS011;10627;54.514;18.532;2022-10-17T03:33:12;5.67;;;3.90;;
20935;SDS011;10627;54.514;18.532;2022-10-17T03:49:33;6.77;;;3.93;;
20935;SDS011;10627;54.514;18.532;2022-10-17T04:01:03;8.07;;;3.43;;
20935;SDS011;10627;54.514;18.532;2022-10-17T04:24:56;5.30;;;3.67;;
20935;SDS011;10627;54.514;18.532;2022-10-17T04:49:49;12.00;;;3.30;;
20935;SDS011;10627;54.514;18.532;2022-10-17T04:55:15;8.27;;;3.07;;
20935;SDS011;10627;54.514;18.532;2022-10-17T05:06:48;4.80;;;2.50;;
20935;SDS011;10627;54.514;18.532;2022-10-17T05:12:19;6.47;;;3.13;;
20935;SDS011;10627;54.514;18.532;2022-10-17T05:17:37;14.67;;;3.40;;
20935;SDS011;10627;54.514;18.532;2022-10-17T05:22:59;10.27;;;3.77;;
20935;SDS011;10627;54.514;18.532;2022-10-17T05:28:06;8.37;;;3.47;;
20935;SDS011;10627;54.514;18.532;2022-10-17T05:33:13;9.13;;;3.13;;
20935;SDS011;10627;54.514;18.532;2022-10-17T05:38:20;9.30;;;2.83;;
20935;SDS011;10627;54.514;18.532;2022-10-17T05:43:32;10.00;;;3.00;;
20935;SDS011;10627;54.514;18.532;2022-10-17T05:48:54;10.30;;;3.40;;
20935;SDS011;10627;54.514;18.532;2022-10-17T05:54:03;8.43;;;3.53;;
20935;SDS011;10627;54.514;18.532;2022-10-17T05:59:17;5.33;;;2.97;;
20935;SDS011;10627;54.514;18.532;2022-10-17T06:04:32;6.70;;;2.73;;
20935;SDS011;10627;54.514;18.532;2022-10-17T06:09:35;7.40;;;3.47;;
20935;SDS011;10627;54.514;18.532;2022-10-17T06:14:53;6.33;;;3.37;;
20935;SDS011;10627;54.514;18.532;2022-10-17T06:26:06;10.13;;;3.53;;
20935;SDS011;10627;54.514;18.532;2022-10-17T06:37:19;15.13;;;3.93;;
20935;SDS011;10627;54.514;18.532;2022-10-17T06:42:39;10.70;;;4.50;;
20935;SDS011;10627;54.514;18.532;2022-10-17T06:47:54;8.83;;;4.50;;
20935;SDS011;10627;54.514;18.532;2022-10-17T06:59:12;14.07;;;5.30;;
20935;SDS011;10627;54.514;18.532;2022-10-17T07:04:40;12.48;;;4.75;;
20935;SDS011;10627;54.514;18.532;2022-10-17T07:09:43;12.38;;;4.38;;
20935;SDS011;10627;54.514;18.532;2022-10-17T07:14:44;14.95;;;4.60;;
20935;SDS011;10627;54.514;18.532;2022-10-17T07:20:01;23.27;;;5.00;;
20935;SDS011;10627;54.514;18.532;2022-10-17T07:31:44;16.55;;;4.75;;
20935;SDS011;10627;54.514;18.532;2022-10-17T07:43:35;12.82;;;2.80;;
20935;SDS011;10627;54.514;18.532;2022-10-17T07:48:37;8.35;;;2.67;;
20935;SDS011;10627;54.514;18.532;2022-10-17T07:53:39;3.78;;;2.17;;
20935;SDS011;10627;54.514;18.532;2022-10-17T07:58:39;5.45;;;2.05;;
20935;SDS011;10627;54.514;18.532;2022-10-17T08:10:32;5.30;;;2.05;;
20935;SDS011;10627;54.514;18.532;2022-10-17T08:15:37;9.68;;;2.38;;
20935;SDS011;10627;54.514;18.532;2022-10-17T08:20:51;9.80;;;1.95;;
20935;SDS011;10627;54.514;18.532;2022-10-17T08:26:07;10.15;;;1.80;;
20935;SDS011;10627;54.514;18.532;2022-10-17T08:31:16;9.65;;;2.38;;
20935;SDS011;10627;54.514;18.532;2022-10-17T08:43:46;6.82;;;2.90;;
20935;SDS011;10627;54.514;18.532;2022-10-17T08:48:50;8.38;;;2.85;;
20935;SDS011;10627;54.514;18.532;2022-10-17T08:53:53;9.93;;;3.30;;
20935;SDS011;10627;54.514;18.532;2022-10-17T08:58:56;13.48;;;3.20;;
20935;SDS011;10627;54.514;18.532;2022-10-17T09:14:49;11.23;;;3.90;;
20935;SDS011;10627;54.514;18.532;2022-10-17T09:20:09;15.65;;;4.30;;
20935;SDS011;10627;54.514;18.532;2022-10-17T09:25:21;12.75;;;5.82;;
20935;SDS011;10627;54.514;18.532;2022-10-17T09:35:44;17.77;;;5.55;;
20935;SDS011;10627;54.514;18.532;2022-10-17T09:40:49;15.25;;;5.97;;
20935;SDS011;10627;54.514;18.532;2022-10-17T09:51:08;14.77;;;5.00;;
20935;SDS011;10627;54.514;18.532;2022-10-17T09:56:13;10.75;;;3.83;;
20935;SDS011;10627;54.514;18.532;2022-10-17T10:06:20;7.65;;;2.13;;
20935;SDS011;10627;54.514;18.532;2022-10-17T10:11:22;8.02;;;2.47;;
20935;SDS011;10627;54.514;18.532;2022-10-17T10:21:29;9.95;;;3.08;;
20935;SDS011;10627;54.514;18.532;2022-10-17T10:31:42;19.65;;;3.13;;
20935;SDS011;10627;54.514;18.532;2022-10-17T10:36:54;11.68;;;2.40;;
20935;SDS011;10627;54.514;18.532;2022-10-17T10:42:01;12.88;;;3.28;;
20935;SDS011;10627;54.514;18.532;2022-10-17T10:47:07;6.85;;;2.75;;
20935;SDS011;10627;54.514;18.532;2022-10-17T10:52:30;4.75;;;2.70;;
20935;SDS011;10627;54.514;18.532;2022-10-17T10:57:33;6.22;;;3.13;;
20935;SDS011;10627;54.514;18.532;2022-10-17T11:02:39;12.88;;;4.20;;
20935;SDS011;10627;54.514;18.532;2022-10-17T11:07:46;7.40;;;3.60;;
20935;SDS011;10627;54.514;18.532;2022-10-17T11:12:59;11.68;;;3.97;;
20935;SDS011;10627;54.514;18.532;2022-10-17T11:18:27;11.77;;;4.68;;
20935;SDS011;10627;54.514;18.532;2022-10-17T11:28:46;8.90;;;4.38;;
20935;SDS011;10627;54.514;18.532;2022-10-17T11:33:53;9.30;;;3.75;;
20935;SDS011;10627;54.514;18.532;2022-10-17T11:39:17;7.18;;;4.20;;
20935;SDS011;10627;54.514;18.532;2022-10-17T11:44:24;10.10;;;4.70;;
20935;SDS011;10627;54.514;18.532;2022-10-17T11:49:28;5.03;;;2.92;;
20935;SDS011;10627;54.514;18.532;2022-10-17T11:54:37;9.63;;;3.65;;
20935;SDS011;10627;54.514;18.532;2022-10-17T12:04:56;9.10;;;4.65;;
20935;SDS011;10627;54.514;18.532;2022-10-17T12:15:32;13.55;;;6.43;;
20935;SDS011;10627;54.514;18.532;2022-10-17T12:20:34;10.55;;;5.32;;
20935;SDS011;10627;54.514;18.532;2022-10-17T12:25:36;11.30;;;5.72;;
20935;SDS011;10627;54.514;18.532;2022-10-17T12:52:20;13.90;;;7.63;;
20935;SDS011;10627;54.514;18.532;2022-10-17T13:02:37;10.65;;;7.88;;
20935;SDS011;10627;54.514;18.532;2022-10-17T13:07:37;11.85;;;7.72;;
20935;SDS011;10627;54.514;18.532;2022-10-17T13:12:41;16.35;;;7.63;;
20935;SDS011;10627;54.514;18.532;2022-10-17T13:17:42;9.45;;;7.75;;
20935;SDS011;10627;54.514;18.532;2022-10-17T13:22:43;9.23;;;7.35;;
20935;SDS011;10627;54.514;18.532;2022-10-17T13:27:44;11.55;;;8.05;;
20935;SDS011;10627;54.514;18.532;2022-10-17T13:32:47;16.35;;;8.32;;
20935;SDS011;10627;54.514;18.532;2022-10-17T13:37:48;13.07;;;8.32;;
20935;SDS011;10627;54.514;18.532;2022-10-17T13:42:50;12.52;;;7.78;;
20935;SDS011;10627;54.514;18.532;2022-10-17T13:47:51;12.23;;;8.02;;
20935;SDS011;10627;54.514;18.532;2022-10-17T13:58:49;12.10;;;8.70;;
20935;SDS011;10627;54.514;18.532;2022-10-17T14:03:51;11.18;;;8.07;;
20935;SDS011;10627;54.514;18.532;2022-10-17T14:08:59;11.88;;;8.75;;
20935;SDS011;10627;54.514;18.532;2022-10-17T14:14:03;13.85;;;9.35;;
20935;SDS011;10627;54.514;18.532;2022-10-17T14:19:15;17.83;;;8.88;;
20935;SDS011;10627;54.514;18.532;2022-10-17T14:34:22;15.98;;;10.13;;
20935;SDS011;10627;54.514;18.532;2022-10-17T14:39:28;15.95;;;9.60;;
20935;SDS011;10627;54.514;18.532;2022-10-17T14:44:30;18.20;;;9.10;;
20935;SDS011;10627;54.514;18.532;2022-10-17T14:49:34;16.48;;;9.88;;
20935;SDS011;10627;54.514;18.532;2022-10-17T14:54:35;14.82;;;9.85;;
20935;SDS011;10627;54.514;18.532;2022-10-17T14:59:37;18.00;;;9.05;;
20935;SDS011;10627;54.514;18.532;2022-10-17T15:04:38;15.73;;;9.38;;
20935;SDS011;10627;54.514;18.532;2022-10-17T15:09:38;16.95;;;9.63;;
20935;SDS011;10627;54.514;18.532;2022-10-17T15:14:40;14.20;;;9.77;;
20935;SDS011;10627;54.514;18.532;2022-10-17T15:19:41;17.27;;;10.50;;
20935;SDS011;10627;54.514;18.532;2022-10-17T15:24:41;18.65;;;9.43;;
20935;SDS011;10627;54.514;18.532;2022-10-17T15:29:42;20.27;;;9.50;;
20935;SDS011;10627;54.514;18.532;2022-10-17T15:34:44;16.15;;;9.68;;
20935;SDS011;10627;54.514;18.532;2022-10-17T15:39:46;19.13;;;9.85;;
20935;SDS011;10627;54.514;18.532;2022-10-17T15:44:55;33.70;;;15.98;;
20935;SDS011;10627;54.514;18.532;2022-10-17T15:49:56;28.02;;;18.02;;
20935;SDS011;10627;54.514;18.532;2022-10-17T15:54:56;19.33;;;10.90;;
20935;SDS011;10627;54.514;18.532;2022-10-17T15:59:58;17.85;;;11.65;;
20935;SDS011;10627;54.514;18.532;2022-10-17T16:05:18;16.63;;;10.80;;
20935;SDS011;10627;54.514;18.532;2022-10-17T16:10:25;17.25;;;9.90;;
20935;SDS011;10627;54.514;18.532;2022-10-17T16:15:26;17.17;;;10.52;;
20935;SDS011;10627;54.514;18.532;2022-10-17T16:20:27;18.77;;;10.60;;
20935;SDS011;10627;54.514;18.532;2022-10-17T16:25:28;23.25;;;11.27;;
20935;SDS011;10627;54.514;18.532;2022-10-17T16:30:30;22.52;;;11.55;;
20935;SDS011;10627;54.514;18.532;2022-10-17T16:35:32;25.88;;;11.52;;
20935;SDS011;10627;54.514;18.532;2022-10-17T16:40:33;19.13;;;11.80;;
20935;SDS011;10627;54.514;18.532;2022-10-17T16:45:34;22.80;;;12.70;;
20935;SDS011;10627;54.514;18.532;2022-10-17T16:50:37;17.92;;;13.35;;
20935;SDS011;10627;54.514;18.532;2022-10-17T16:55:39;26.75;;;13.85;;
20935;SDS011;10627;54.514;18.532;2022-10-17T17:00:39;23.90;;;14.85;;
20935;SDS011;10627;54.514;18.532;2022-10-17T17:05:41;21.95;;;13.05;;
20935;SDS011;10627;54.514;18.532;2022-10-17T17:10:43;22.92;;;14.10;;
20935;SDS011;10627;54.514;18.532;2022-10-17T17:15:45;23.60;;;14.90;;
20935;SDS011;10627;54.514;18.532;2022-10-17T17:20:46;25.35;;;15.85;;
20935;SDS011;10627;54.514;18.532;2022-10-17T17:25:55;26.77;;;16.43;;
20935;SDS011;10627;54.514;18.532;2022-10-17T17:31:00;28.27;;;16.05;;
20935;SDS011;10627;54.514;18.532;2022-10-17T17:36:02;25.77;;;16.33;;
20935;SDS011;10627;54.514;18.532;2022-10-17T17:41:03;25.38;;;16.77;;
20935;SDS011;10627;54.514;18.532;2022-10-17T17:46:04;28.08;;;16.67;;
20935;SDS011;10627;54.514;18.532;2022-10-17T17:51:05;25.48;;;16.60;;
20935;SDS011;10627;54.514;18.532;2022-10-17T17:56:18;29.42;;;17.67;;
20935;SDS011;10627;54.514;18.532;2022-10-17T18:01:23;30.48;;;16.65;;
20935;SDS011;10627;54.514;18.532;2022-10-17T18:06:25;30.13;;;16.98;;
20935;SDS011;10627;54.514;18.532;2022-10-17T18:11:26;27.17;;;15.35;;
20935;SDS011;10627;54.514;18.532;2022-10-17T18:16:28;23.88;;;15.45;;
20935;SDS011;10627;54.514;18.532;2022-10-17T18:21:29;27.35;;;16.10;;
20935;SDS011;10627;54.514;18.532;2022-10-17T18:26:31;26.75;;;15.32;;
20935;SDS011;10627;54.514;18.532;2022-10-17T18:31:32;24.45;;;14.60;;
20935;SDS011;10627;54.514;18.532;2022-10-17T18:36:34;30.88;;;14.85;;
20935;SDS011;10627;54.514;18.532;2022-10-17T18:41:37;22.17;;;14.20;;
20935;SDS011;10627;54.514;18.532;2022-10-17T18:46:38;21.23;;;13.80;;
20935;SDS011;10627;54.514;18.532;2022-10-17T18:51:42;22.60;;;13.57;;
20935;SDS011;10627;54.514;18.532;2022-10-17T18:56:43;24.50;;;14.27;;
20935;SDS011;10627;54.514;18.532;2022-10-17T19:01:44;21.63;;;13.80;;
20935;SDS011;10627;54.514;18.532;2022-10-17T19:06:49;21.58;;;13.15;;
20935;SDS011;10627;54.514;18.532;2022-10-17T19:11:50;22.98;;;13.18;;
20935;SDS011;10627;54.514;18.532;2022-10-17T19:16:51;25.35;;;13.68;;
20935;SDS011;10627;54.514;18.532;2022-10-17T19:21:52;20.65;;;14.25;;
20935;SDS011;10627;54.514;18.532;2022-10-17T19:26:53;22.65;;;13.15;;
20935;SDS011;10627;54.514;18.532;2022-10-17T19:31:57;25.23;;;12.85;;
20935;SDS011;10627;54.514;18.532;2022-10-17T19:36:57;19.42;;;12.40;;
20935;SDS011;10627;54.514;18.532;2022-10-17T19:41:59;22.77;;;11.80;;
20935;SDS011;10627;54.514;18.532;2022-10-17T19:47:00;18.85;;;11.13;;
20935;SDS011;10627;54.514;18.532;2022-10-17T19:52:00;22.83;;;12.03;;
20935;SDS011;10627;54.514;18.532;2022-10-17T19:57:02;21.33;;;11.65;;
20935;SDS011;10627;54.514;18.532;2022-10-17T20:02:02;17.60;;;11.35;;
20935;SDS011;10627;54.514;18.532;2022-10-17T20:07:03;16.67;;;10.98;;
20935;SDS011;10627;54.514;18.532;2022-10-17T20:12:04;33.22;;;11.80;;
20935;SDS011;10627;54.514;18.532;2022-10-17T20:17:05;16.95;;;10.20;;
20935;SDS011;10627;54.514;18.532;2022-10-17T20:22:05;16.83;;;10.88;;
20935;SDS011;10627;54.514;18.532;2022-10-17T20:27:06;17.95;;;10.73;;
20935;SDS011;10627;54.514;18.532;2022-10-17T20:32:07;16.55;;;10.52;;
20935;SDS011;10627;54.514;18.532;2022-10-17T20:37:07;18.92;;;9.90;;
20935;SDS011;10627;54.514;18.532;2022-10-17T20:42:08;15.00;;;8.75;;
20935;SDS011;10627;54.514;18.532;2022-10-17T20:47:09;17.17;;;10.20;;
20935;SDS011;10627;54.514;18.532;2022-10-17T20:52:10;11.93;;;8.88;;
20935;SDS011;10627;54.514;18.532;2022-10-17T20:57:10;15.98;;;9.38;;
20935;SDS011;10627;54.514;18.532;2022-10-17T21:02:11;21.63;;;10.52;;
20935;SDS011;10627;54.514;18.532;2022-10-17T21:07:13;15.65;;;8.82;;
20935;SDS011;10627;54.514;18.532;2022-10-17T21:12:20;15.35;;;9.73;;
20935;SDS011;10627;54.514;18.532;2022-10-17T21:17:21;14.50;;;8.73;;
20935;SDS011;10627;54.514;18.532;2022-10-17T21:22:21;16.17;;;8.98;;
20935;SDS011;10627;54.514;18.532;2022-10-17T21:27:22;18.30;;;9.32;;
20935;SDS011;10627;54.514;18.532;2022-10-17T21:32:23;13.20;;;8.40;;
20935;SDS011;10627;54.514;18.532;2022-10-17T21:37:23;16.63;;;9.52;;
20935;SDS011;10627;54.514;18.532;2022-10-17T21:42:24;21.17;;;9.20;;
20935;SDS011;10627;54.514;18.532;2022-10-17T21:47:25;15.90;;;7.93;;
20935;SDS011;10627;54.514;18.532;2022-10-17T21:52:26;21.88;;;9.48;;
20935;SDS011;10627;54.514;18.532;2022-10-17T21:57:27;11.00;;;8.23;;
20935;SDS011;10627;54.514;18.532;2022-10-17T22:02:30;13.45;;;8.57;;
20935;SDS011;10627;54.514;18.532;2022-10-17T22:07:30;15.15;;;8.05;;
20935;SDS011;10627;54.514;18.532;2022-10-17T22:12:31;15.25;;;8.25;;
20935;SDS011;10627;54.514;18.532;2022-10-17T22:17:32;14.20;;;8.07;;
20935;SDS011;10627;54.514;18.532;2022-10-17T22:22:32;12.10;;;8.02;;
20935;SDS011;10627;54.514;18.532;2022-10-17T22:27:33;14.75;;;8.20;;
20935;SDS011;10627;54.514;18.532;2022-10-17T22:32:34;13.95;;;7.68;;
20935;SDS011;10627;54.514;18.532;2022-10-17T22:37:34;14.13;;;7.63;;
20935;SDS011;10627;54.514;18.532;2022-10-17T22:42:35;12.73;;;6.60;;
20935;SDS011;10627;54.514;18.532;2022-10-17T22:47:36;9.73;;;6.35;;
20935;SDS011;10627;54.514;18.532;2022-10-17T22:52:36;15.95;;;6.28;;
20935;SDS011;10627;54.514;18.532;2022-10-17T22:57:37;13.77;;;6.35;;
20935;SDS011;10627;54.514;18.532;2022-10-17T23:02:38;11.68;;;6.65;;
20935;SDS011;10627;54.514;18.532;2022-10-17T23:07:39;14.07;;;7.78;;
20935;SDS011;10627;54.514;18.532;2022-10-17T23:12:39;13.40;;;6.65;;
20935;SDS011;10627;54.514;18.532;2022-10-17T23:17:40;8.15;;;6.05;;
20935;SDS011;10627;54.514;18.532;2022-10-17T23:22:41;16.35;;;5.93;;
20935;SDS011;10627;54.514;18.532;2022-10-17T23:27:41;9.45;;;5.93;;
20935;SDS011;10627;54.514;18.532;2022-10-17T23:32:42;7.53;;;5.78;;
20935;SDS011;10627;54.514;18.532;2022-10-17T23:37:43;7.45;;;5.00;;
20935;SDS011;10627;54.514;18.532;2022-10-17T23:42:43;6.85;;;5.55;;
20935;SDS011;10627;54.514;18.532;2022-10-17T23:47:44;7.07;;;4.93;;
20935;SDS011;10627;54.514;18.532;2022-10-17T23:52:45;11.70;;;5.28;;
20935;SDS011;10627;54.514;18.532;2022-10-17T23:57:45;11.32;;;5.10;;
